Terminal Aerodrome Forecast
Issued by NWS

Home | Current Version | Previous Version | Text Only | Print | Product List | Glossary On
Versions: 1 2 3 4 5 6 7 8 9 10 11 12 13 14 15 16 17 18 19 20 21 22 23 24
000
FTUS43 KDTX 261720
TAFPTK
TAF
KPTK 261720Z 2618/2718 36009KT P6SM BKN060
     FM270300 33005KT P6SM BKN050
     FM270900 35005KT P6SM OVC012
     FM271500 35011KT P6SM BKN028=

USA.gov is the U.S. government's official web portal to all federal, state and local government web resources and services.